sensor_id;sensor_type;location;lat;lon;timestamp;pressure;altitude;pressure_sealevel;temperature;humidity
21395;BME280;10858;42.714;23.180;2023-01-29T00:00:06;94520.50;;;1.99;75.25
21395;BME280;10858;42.714;23.180;2023-01-29T00:02:35;94526.38;;;1.87;76.35
21395;BME280;10858;42.714;23.180;2023-01-29T00:05:02;94525.81;;;1.64;76.71
21395;BME280;10858;42.714;23.180;2023-01-29T00:07:29;94528.72;;;1.76;77.12
21395;BME280;10858;42.714;23.180;2023-01-29T00:09:55;94525.03;;;1.80;76.35
21395;BME280;10858;42.714;23.180;2023-01-29T00:12:21;94529.44;;;1.45;77.66
21395;BME280;10858;42.714;23.180;2023-01-29T00:14:47;94532.00;;;1.29;78.93
21395;BME280;10858;42.714;23.180;2023-01-29T00:17:14;94541.34;;;1.50;77.96
21395;BME280;10858;42.714;23.180;2023-01-29T00:19:40;94536.06;;;1.52;78.39
21395;BME280;10858;42.714;23.180;2023-01-29T00:22:06;94534.31;;;1.35;78.62
21395;BME280;10858;42.714;23.180;2023-01-29T00:24:32;94532.19;;;1.59;77.96
21395;BME280;10858;42.714;23.180;2023-01-29T00:26:58;94532.97;;;1.78;77.16
21395;BME280;10858;42.714;23.180;2023-01-29T00:29:25;94539.84;;;1.79;76.94
21395;BME280;10858;42.714;23.180;2023-01-29T00:31:51;94541.44;;;1.66;77.38
21395;BME280;10858;42.714;23.180;2023-01-29T00:34:17;94537.00;;;1.84;77.27
21395;BME280;10858;42.714;23.180;2023-01-29T00:36:43;94540.09;;;1.74;77.06
21395;BME280;10858;42.714;23.180;2023-01-29T00:39:10;94544.22;;;1.79;77.48
21395;BME280;10858;42.714;23.180;2023-01-29T00:41:37;94543.47;;;1.77;77.88
21395;BME280;10858;42.714;23.180;2023-01-29T00:44:22;94542.78;;;1.73;77.67
21395;BME280;10858;42.714;23.180;2023-01-29T00:47:07;94547.03;;;1.76;77.45
21395;BME280;10858;42.714;23.180;2023-01-29T00:49:52;94544.09;;;1.82;78.36
21395;BME280;10858;42.714;23.180;2023-01-29T00:52:18;94554.09;;;1.56;77.92
21395;BME280;10858;42.714;23.180;2023-01-29T00:54:55;94557.47;;;1.58;78.29
21395;BME280;10858;42.714;23.180;2023-01-29T00:57:23;94552.56;;;1.52;78.48
21395;BME280;10858;42.714;23.180;2023-01-29T00:59:49;94550.31;;;1.79;78.52
21395;BME280;10858;42.714;23.180;2023-01-29T01:02:16;94544.94;;;1.82;78.16
21395;BME280;10858;42.714;23.180;2023-01-29T01:05:00;94547.84;;;2.09;76.76
21395;BME280;10858;42.714;23.180;2023-01-29T01:07:31;94543.81;;;2.19;76.14
21395;BME280;10858;42.714;23.180;2023-01-29T01:09:57;94541.09;;;2.05;76.33
21395;BME280;10858;42.714;23.180;2023-01-29T01:12:42;94545.34;;;2.07;76.14
21395;BME280;10858;42.714;23.180;2023-01-29T01:15:09;94539.13;;;1.93;75.89
21395;BME280;10858;42.714;23.180;2023-01-29T01:17:35;94531.59;;;1.87;76.95
21395;BME280;10858;42.714;23.180;2023-01-29T01:20:02;94536.44;;;1.61;77.62
21395;BME280;10858;42.714;23.180;2023-01-29T01:22:28;94543.91;;;1.52;77.66
21395;BME280;10858;42.714;23.180;2023-01-29T01:24:56;94538.66;;;1.69;77.82
21395;BME280;10858;42.714;23.180;2023-01-29T01:27:22;94536.81;;;2.04;76.43
21395;BME280;10858;42.714;23.180;2023-01-29T01:29:48;94539.44;;;2.04;76.42
21395;BME280;10858;42.714;23.180;2023-01-29T01:32:14;94539.53;;;1.85;76.61
21395;BME280;10858;42.714;23.180;2023-01-29T01:34:41;94542.94;;;2.03;76.36
21395;BME280;10858;42.714;23.180;2023-01-29T01:37:07;94541.53;;;2.13;75.50
21395;BME280;10858;42.714;23.180;2023-01-29T01:39:33;94537.25;;;2.12;75.13
21395;BME280;10858;42.714;23.180;2023-01-29T01:41:59;94545.88;;;1.97;76.75
21395;BME280;10858;42.714;23.180;2023-01-29T01:47:18;94544.22;;;1.79;76.77
21395;BME280;10858;42.714;23.180;2023-01-29T01:49:46;94548.38;;;2.00;76.46
21395;BME280;10858;42.714;23.180;2023-01-29T01:52:14;94539.97;;;2.26;76.02
21395;BME280;10858;42.714;23.180;2023-01-29T01:54:42;94540.19;;;2.06;75.87
21395;BME280;10858;42.714;23.180;2023-01-29T01:57:13;94539.78;;;1.81;77.97
21395;BME280;10858;42.714;23.180;2023-01-29T01:59:55;94541.59;;;1.96;77.09
21395;BME280;10858;42.714;23.180;2023-01-29T02:02:23;94553.66;;;1.48;78.46
21395;BME280;10858;42.714;23.180;2023-01-29T02:05:10;94552.19;;;1.60;78.17
21395;BME280;10858;42.714;23.180;2023-01-29T02:07:55;94549.22;;;1.83;77.75
21395;BME280;10858;42.714;23.180;2023-01-29T02:10:44;94544.81;;;2.01;77.01
21395;BME280;10858;42.714;23.180;2023-01-29T02:13:11;94544.03;;;1.99;77.28
21395;BME280;10858;42.714;23.180;2023-01-29T02:15:41;94547.75;;;1.95;76.95
21395;BME280;10858;42.714;23.180;2023-01-29T02:18:12;94542.31;;;1.82;77.58
21395;BME280;10858;42.714;23.180;2023-01-29T02:20:43;94551.50;;;1.56;78.47
21395;BME280;10858;42.714;23.180;2023-01-29T02:26:14;94543.03;;;1.68;78.27
21395;BME280;10858;42.714;23.180;2023-01-29T02:31:31;94551.81;;;1.67;79.05
21395;BME280;10858;42.714;23.180;2023-01-29T02:37:03;94552.06;;;1.79;78.44
21395;BME280;10858;42.714;23.180;2023-01-29T02:39:56;94563.34;;;1.63;78.20
21395;BME280;10858;42.714;23.180;2023-01-29T02:42:46;94564.25;;;1.62;78.61
21395;BME280;10858;42.714;23.180;2023-01-29T02:45:23;94566.53;;;1.68;78.85
21395;BME280;10858;42.714;23.180;2023-01-29T02:47:57;94562.53;;;1.79;78.52
21395;BME280;10858;42.714;23.180;2023-01-29T02:58:28;94560.06;;;1.93;77.80
21395;BME280;10858;42.714;23.180;2023-01-29T03:01:08;94559.78;;;1.82;77.61
21395;BME280;10858;42.714;23.180;2023-01-29T03:03:41;94559.47;;;1.88;78.23
21395;BME280;10858;42.714;23.180;2023-01-29T03:06:42;94563.44;;;1.95;77.58
21395;BME280;10858;42.714;23.180;2023-01-29T03:09:19;94560.69;;;1.98;77.57
21395;BME280;10858;42.714;23.180;2023-01-29T03:12:04;94552.75;;;1.99;77.44
21395;BME280;10858;42.714;23.180;2023-01-29T03:14:46;94566.81;;;2.29;76.83
21395;BME280;10858;42.714;23.180;2023-01-29T03:17:46;94565.63;;;2.19;76.67
21395;BME280;10858;42.714;23.180;2023-01-29T03:20:18;94564.75;;;2.19;76.16
21395;BME280;10858;42.714;23.180;2023-01-29T03:22:54;94565.97;;;2.29;76.09
21395;BME280;10858;42.714;23.180;2023-01-29T03:25:24;94572.34;;;2.08;77.05
21395;BME280;10858;42.714;23.180;2023-01-29T03:28:14;94576.06;;;2.04;76.52
21395;BME280;10858;42.714;23.180;2023-01-29T03:31:04;94573.00;;;1.96;76.73
21395;BME280;10858;42.714;23.180;2023-01-29T03:39:07;94580.97;;;1.60;78.38
21395;BME280;10858;42.714;23.180;2023-01-29T03:41:37;94577.03;;;1.51;77.60
21395;BME280;10858;42.714;23.180;2023-01-29T03:44:15;94572.25;;;1.59;77.43
21395;BME280;10858;42.714;23.180;2023-01-29T04:01:20;94566.69;;;1.83;75.85
21395;BME280;10858;42.714;23.180;2023-01-29T04:06:25;94570.06;;;2.02;75.55
21395;BME280;10858;42.714;23.180;2023-01-29T04:09:02;94569.28;;;2.00;74.87
21395;BME280;10858;42.714;23.180;2023-01-29T04:11:29;94573.44;;;2.04;74.90
21395;BME280;10858;42.714;23.180;2023-01-29T04:13:57;94579.56;;;2.03;74.74
21395;BME280;10858;42.714;23.180;2023-01-29T04:16:36;94577.25;;;2.14;74.41
21395;BME280;10858;42.714;23.180;2023-01-29T04:19:05;94581.16;;;1.90;75.07
21395;BME280;10858;42.714;23.180;2023-01-29T04:21:31;94589.22;;;1.85;75.62
21395;BME280;10858;42.714;23.180;2023-01-29T04:23:58;94587.59;;;1.83;75.36
21395;BME280;10858;42.714;23.180;2023-01-29T04:31:56;94584.94;;;1.67;77.15
21395;BME280;10858;42.714;23.180;2023-01-29T04:34:28;94593.16;;;1.77;76.89
21395;BME280;10858;42.714;23.180;2023-01-29T04:42:40;94589.78;;;1.57;77.54
21395;BME280;10858;42.714;23.180;2023-01-29T04:48:27;94595.72;;;1.78;77.06
21395;BME280;10858;42.714;23.180;2023-01-29T04:50:56;94594.25;;;1.55;77.65
21395;BME280;10858;42.714;23.180;2023-01-29T04:56:10;94598.69;;;1.70;77.43
21395;BME280;10858;42.714;23.180;2023-01-29T04:58:45;94601.63;;;1.82;77.54
21395;BME280;10858;42.714;23.180;2023-01-29T05:01:15;94603.72;;;1.58;78.18
21395;BME280;10858;42.714;23.180;2023-01-29T05:03:48;94599.47;;;1.55;78.71
21395;BME280;10858;42.714;23.180;2023-01-29T05:06:16;94600.41;;;1.71;78.37
21395;BME280;10858;42.714;23.180;2023-01-29T05:08:44;94602.16;;;1.71;77.90
21395;BME280;10858;42.714;23.180;2023-01-29T05:11:12;94595.16;;;1.71;78.37
21395;BME280;10858;42.714;23.180;2023-01-29T05:13:40;94605.84;;;1.67;78.27
21395;BME280;10858;42.714;23.180;2023-01-29T05:16:17;94608.41;;;1.51;78.45
21395;BME280;10858;42.714;23.180;2023-01-29T05:18:45;94604.94;;;1.68;77.73
21395;BME280;10858;42.714;23.180;2023-01-29T05:21:11;94607.25;;;1.57;78.59
21395;BME280;10858;42.714;23.180;2023-01-29T05:23:38;94602.63;;;1.45;78.65
21395;BME280;10858;42.714;23.180;2023-01-29T05:26:04;94607.28;;;1.38;79.03
21395;BME280;10858;42.714;23.180;2023-01-29T05:28:31;94601.63;;;1.47;79.07
21395;BME280;10858;42.714;23.180;2023-01-29T05:30:57;94613.84;;;1.81;78.18
21395;BME280;10858;42.714;23.180;2023-01-29T05:33:28;94608.06;;;1.92;77.10
21395;BME280;10858;42.714;23.180;2023-01-29T05:35:57;94616.16;;;1.87;77.11
21395;BME280;10858;42.714;23.180;2023-01-29T05:38:24;94616.06;;;2.06;76.18
21395;BME280;10858;42.714;23.180;2023-01-29T05:40:50;94614.84;;;1.96;76.83
21395;BME280;10858;42.714;23.180;2023-01-29T05:43:18;94626.66;;;2.03;77.13
21395;BME280;10858;42.714;23.180;2023-01-29T05:45:54;94620.34;;;2.07;76.21
21395;BME280;10858;42.714;23.180;2023-01-29T05:48:21;94619.59;;;2.05;76.37
21395;BME280;10858;42.714;23.180;2023-01-29T05:50:47;94625.53;;;2.08;76.39
21395;BME280;10858;42.714;23.180;2023-01-29T05:53:13;94628.19;;;2.07;75.68
21395;BME280;10858;42.714;23.180;2023-01-29T05:55:42;94628.22;;;1.72;76.80
21395;BME280;10858;42.714;23.180;2023-01-29T05:58:08;94638.38;;;1.79;77.45
21395;BME280;10858;42.714;23.180;2023-01-29T06:00:35;94632.38;;;1.94;77.15
21395;BME280;10858;42.714;23.180;2023-01-29T06:03:01;94641.13;;;1.93;77.14
21395;BME280;10858;42.714;23.180;2023-01-29T06:05:27;94638.69;;;1.72;77.90
21395;BME280;10858;42.714;23.180;2023-01-29T06:07:53;94635.84;;;1.60;77.67
21395;BME280;10858;42.714;23.180;2023-01-29T06:10:20;94644.22;;;1.66;78.72
21395;BME280;10858;42.714;23.180;2023-01-29T06:12:46;94644.63;;;1.76;78.00
21395;BME280;10858;42.714;23.180;2023-01-29T06:15:12;94646.53;;;1.55;78.57
21395;BME280;10858;42.714;23.180;2023-01-29T06:17:41;94655.00;;;1.78;78.36
21395;BME280;10858;42.714;23.180;2023-01-29T06:20:08;94657.91;;;1.54;79.09
21395;BME280;10858;42.714;23.180;2023-01-29T06:22:34;94657.44;;;1.81;78.71
21395;BME280;10858;42.714;23.180;2023-01-29T06:25:00;94665.75;;;1.71;79.01
21395;BME280;10858;42.714;23.180;2023-01-29T06:27:27;94666.44;;;1.75;78.92
21395;BME280;10858;42.714;23.180;2023-01-29T06:29:53;94667.13;;;1.79;79.19
21395;BME280;10858;42.714;23.180;2023-01-29T06:32:19;94673.38;;;1.76;79.61
21395;BME280;10858;42.714;23.180;2023-01-29T06:34:45;94676.19;;;1.54;79.63
21395;BME280;10858;42.714;23.180;2023-01-29T06:37:11;94677.13;;;1.53;80.74
21395;BME280;10858;42.714;23.180;2023-01-29T06:39:38;94679.91;;;2.02;79.59
21395;BME280;10858;42.714;23.180;2023-01-29T06:42:04;94678.97;;;2.03;78.30
21395;BME280;10858;42.714;23.180;2023-01-29T06:44:30;94678.66;;;1.74;79.36
21395;BME280;10858;42.714;23.180;2023-01-29T06:46:56;94683.97;;;1.73;78.75
21395;BME280;10858;42.714;23.180;2023-01-29T06:49:22;94674.34;;;1.56;79.68
21395;BME280;10858;42.714;23.180;2023-01-29T06:51:48;94685.53;;;1.60;79.49
21395;BME280;10858;42.714;23.180;2023-01-29T06:54:15;94695.97;;;1.60;79.77
21395;BME280;10858;42.714;23.180;2023-01-29T06:56:41;94690.19;;;1.70;79.41
21395;BME280;10858;42.714;23.180;2023-01-29T06:59:07;94693.63;;;1.90;78.93
21395;BME280;10858;42.714;23.180;2023-01-29T07:01:33;94696.97;;;2.09;78.09
21395;BME280;10858;42.714;23.180;2023-01-29T07:03:59;94693.78;;;2.04;77.66
21395;BME280;10858;42.714;23.180;2023-01-29T07:06:29;94697.59;;;1.97;78.37
21395;BME280;10858;42.714;23.180;2023-01-29T07:08:56;94698.38;;;1.99;77.77
21395;BME280;10858;42.714;23.180;2023-01-29T07:11:22;94704.00;;;1.74;78.77
21395;BME280;10858;42.714;23.180;2023-01-29T07:13:48;94698.69;;;1.93;78.37
21395;BME280;10858;42.714;23.180;2023-01-29T07:16:15;94706.97;;;1.66;79.24
21395;BME280;10858;42.714;23.180;2023-01-29T07:18:41;94710.47;;;1.48;79.03
21395;BME280;10858;42.714;23.180;2023-01-29T07:21:07;94705.13;;;1.68;79.15
21395;BME280;10858;42.714;23.180;2023-01-29T07:23:34;94723.47;;;2.03;78.43
21395;BME280;10858;42.714;23.180;2023-01-29T07:26:02;94721.06;;;2.15;78.23
21395;BME280;10858;42.714;23.180;2023-01-29T07:28:28;94714.19;;;2.47;76.94
21395;BME280;10858;42.714;23.180;2023-01-29T07:30:56;94717.28;;;2.21;76.89
21395;BME280;10858;42.714;23.180;2023-01-29T07:33:23;94718.47;;;1.98;77.67
21395;BME280;10858;42.714;23.180;2023-01-29T07:35:49;94728.22;;;1.95;78.42
21395;BME280;10858;42.714;23.180;2023-01-29T07:38:15;94724.00;;;1.92;77.58
21395;BME280;10858;42.714;23.180;2023-01-29T07:40:42;94724.69;;;2.13;77.17
21395;BME280;10858;42.714;23.180;2023-01-29T07:43:09;94722.63;;;2.19;77.19
21395;BME280;10858;42.714;23.180;2023-01-29T07:45:37;94733.00;;;2.38;76.28
21395;BME280;10858;42.714;23.180;2023-01-29T07:48:05;94726.53;;;2.28;76.28
21395;BME280;10858;42.714;23.180;2023-01-29T07:50:33;94727.16;;;2.16;77.27
21395;BME280;10858;42.714;23.180;2023-01-29T07:53:00;94731.00;;;2.26;77.09
21395;BME280;10858;42.714;23.180;2023-01-29T07:55:26;94728.84;;;2.17;76.55
21395;BME280;10858;42.714;23.180;2023-01-29T07:58:00;94734.69;;;1.88;77.99
21395;BME280;10858;42.714;23.180;2023-01-29T08:00:28;94731.75;;;2.11;77.54
21395;BME280;10858;42.714;23.180;2023-01-29T08:03:05;94731.97;;;2.57;75.13
21395;BME280;10858;42.714;23.180;2023-01-29T08:05:32;94736.38;;;2.40;75.78
21395;BME280;10858;42.714;23.180;2023-01-29T08:07:58;94737.59;;;2.33;76.42
21395;BME280;10858;42.714;23.180;2023-01-29T08:10:25;94733.50;;;2.94;75.06
21395;BME280;10858;42.714;23.180;2023-01-29T08:12:58;94736.81;;;2.65;74.66
21395;BME280;10858;42.714;23.180;2023-01-29T08:15:26;94740.22;;;2.83;74.11
21395;BME280;10858;42.714;23.180;2023-01-29T08:17:53;94735.19;;;2.95;74.01
21395;BME280;10858;42.714;23.180;2023-01-29T08:20:20;94737.41;;;3.03;73.87
21395;BME280;10858;42.714;23.180;2023-01-29T08:22:47;94738.78;;;3.25;72.84
21395;BME280;10858;42.714;23.180;2023-01-29T08:25:14;94740.72;;;2.74;73.62
21395;BME280;10858;42.714;23.180;2023-01-29T08:27:41;94740.94;;;2.86;73.01
21395;BME280;10858;42.714;23.180;2023-01-29T08:30:08;94755.03;;;2.67;74.09
21395;BME280;10858;42.714;23.180;2023-01-29T08:32:35;94749.03;;;2.32;74.56
21395;BME280;10858;42.714;23.180;2023-01-29T08:35:01;94747.00;;;2.54;75.30
21395;BME280;10858;42.714;23.180;2023-01-29T08:37:27;94749.44;;;2.57;74.68
21395;BME280;10858;42.714;23.180;2023-01-29T08:39:53;94748.03;;;2.84;73.86
21395;BME280;10858;42.714;23.180;2023-01-29T08:42:20;94752.13;;;3.05;72.91
21395;BME280;10858;42.714;23.180;2023-01-29T08:44:46;94759.38;;;3.00;72.80
21395;BME280;10858;42.714;23.180;2023-01-29T08:47:12;94752.16;;;2.55;74.24
21395;BME280;10858;42.714;23.180;2023-01-29T08:49:38;94764.84;;;2.63;74.11
21395;BME280;10858;42.714;23.180;2023-01-29T08:52:04;94753.38;;;2.98;73.04
21395;BME280;10858;42.714;23.180;2023-01-29T08:54:31;94761.47;;;3.26;72.70
21395;BME280;10858;42.714;23.180;2023-01-29T08:56:57;94768.81;;;2.87;72.82
21395;BME280;10858;42.714;23.180;2023-01-29T08:59:23;94776.44;;;2.92;72.98
21395;BME280;10858;42.714;23.180;2023-01-29T09:01:49;94767.19;;;3.17;72.09
21395;BME280;10858;42.714;23.180;2023-01-29T09:04:16;94775.00;;;2.86;72.54
21395;BME280;10858;42.714;23.180;2023-01-29T09:06:42;94772.19;;;2.89;72.75
21395;BME280;10858;42.714;23.180;2023-01-29T09:09:09;94776.34;;;2.93;72.69
21395;BME280;10858;42.714;23.180;2023-01-29T09:11:35;94759.53;;;2.97;72.75
21395;BME280;10858;42.714;23.180;2023-01-29T09:14:03;94775.00;;;2.86;72.96
21395;BME280;10858;42.714;23.180;2023-01-29T09:16:29;94767.19;;;3.17;72.95
21395;BME280;10858;42.714;23.180;2023-01-29T09:18:55;94767.91;;;2.71;73.29
21395;BME280;10858;42.714;23.180;2023-01-29T09:21:21;94771.66;;;2.50;73.56
21395;BME280;10858;42.714;23.180;2023-01-29T09:23:47;94774.81;;;2.89;73.47
21395;BME280;10858;42.714;23.180;2023-01-29T09:26:13;94773.72;;;2.93;72.76
21395;BME280;10858;42.714;23.180;2023-01-29T09:28:39;94766.72;;;2.94;72.92
21395;BME280;10858;42.714;23.180;2023-01-29T09:31:06;94765.66;;;3.13;71.90
21395;BME280;10858;42.714;23.180;2023-01-29T09:33:32;94763.88;;;2.98;72.06
21395;BME280;10858;42.714;23.180;2023-01-29T09:35:58;94766.09;;;2.89;72.12
21395;BME280;10858;42.714;23.180;2023-01-29T09:38:24;94764.22;;;2.75;72.73
21395;BME280;10858;42.714;23.180;2023-01-29T09:41:18;94760.59;;;2.60;73.88
21395;BME280;10858;42.714;23.180;2023-01-29T09:43:52;94759.78;;;2.60;74.34
21395;BME280;10858;42.714;23.180;2023-01-29T09:51:51;94753.13;;;3.03;72.88
21395;BME280;10858;42.714;23.180;2023-01-29T09:57:23;94752.94;;;2.23;75.12
21395;BME280;10858;42.714;23.180;2023-01-29T09:59:50;94757.94;;;2.62;74.61
21395;BME280;10858;42.714;23.180;2023-01-29T10:02:42;94750.53;;;2.53;74.35
21395;BME280;10858;42.714;23.180;2023-01-29T10:05:42;94750.97;;;2.61;74.00
21395;BME280;10858;42.714;23.180;2023-01-29T10:16:59;94749.91;;;1.97;77.51
21395;BME280;10858;42.714;23.180;2023-01-29T10:19:39;94741.16;;;2.32;76.28
21395;BME280;10858;42.714;23.180;2023-01-29T10:24:48;94739.09;;;2.38;76.01
21395;BME280;10858;42.714;23.180;2023-01-29T10:27:18;94735.06;;;2.31;76.24
21395;BME280;10858;42.714;23.180;2023-01-29T10:29:49;94740.31;;;2.48;75.59
21395;BME280;10858;42.714;23.180;2023-01-29T10:32:20;94736.38;;;2.40;75.49
21395;BME280;10858;42.714;23.180;2023-01-29T10:37:35;94727.16;;;2.16;77.37
21395;BME280;10858;42.714;23.180;2023-01-29T10:40:23;94720.94;;;2.68;75.43
21395;BME280;10858;42.714;23.180;2023-01-29T10:43:03;94734.38;;;2.45;75.99
21395;BME280;10858;42.714;23.180;2023-01-29T10:45:53;94730.44;;;2.86;74.87
21395;BME280;10858;42.714;23.180;2023-01-29T11:00:06;94723.72;;;3.13;73.23
21395;BME280;10858;42.714;23.180;2023-01-29T11:02:45;94721.13;;;2.81;74.85
21395;BME280;10858;42.714;23.180;2023-01-29T11:05:35;94714.75;;;3.17;73.66
21395;BME280;10858;42.714;23.180;2023-01-29T11:08:11;94710.72;;;3.27;72.92
21395;BME280;10858;42.714;23.180;2023-01-29T11:10:53;94716.13;;;3.24;72.18
21395;BME280;10858;42.714;23.180;2023-01-29T11:13:30;94711.13;;;3.35;71.65
21395;BME280;10858;42.714;23.180;2023-01-29T11:15:57;94701.22;;;3.09;72.38
21395;BME280;10858;42.714;23.180;2023-01-29T11:18:23;94705.25;;;2.84;73.59
21395;BME280;10858;42.714;23.180;2023-01-29T11:21:02;94704.41;;;2.99;73.87
21395;BME280;10858;42.714;23.180;2023-01-29T11:23:31;94694.72;;;3.47;72.05
21395;BME280;10858;42.714;23.180;2023-01-29T11:25:58;94696.41;;;3.33;72.17
21395;BME280;10858;42.714;23.180;2023-01-29T11:28:45;94698.38;;;3.29;72.15
21395;BME280;10858;42.714;23.180;2023-01-29T11:31:26;94697.41;;;2.99;72.47
21395;BME280;10858;42.714;23.180;2023-01-29T11:34:05;94689.19;;;2.74;74.43
21395;BME280;10858;42.714;23.180;2023-01-29T11:39:20;94685.34;;;3.12;72.73
21395;BME280;10858;42.714;23.180;2023-01-29T11:41:49;94679.75;;;2.87;74.57
21395;BME280;10858;42.714;23.180;2023-01-29T11:44:41;94674.19;;;3.24;73.62
21395;BME280;10858;42.714;23.180;2023-01-29T11:47:20;94671.78;;;3.67;71.92
21395;BME280;10858;42.714;23.180;2023-01-29T11:49:59;94680.00;;;3.45;71.96
21395;BME280;10858;42.714;23.180;2023-01-29T11:52:39;94670.72;;;3.08;72.99
21395;BME280;10858;42.714;23.180;2023-01-29T11:55:15;94668.25;;;2.90;73.44
21395;BME280;10858;42.714;23.180;2023-01-29T12:00:31;94667.03;;;2.64;74.07
21395;BME280;10858;42.714;23.180;2023-01-29T12:03:06;94679.59;;;3.06;73.96
21395;BME280;10858;42.714;23.180;2023-01-29T12:05:36;94666.91;;;2.98;72.75
21395;BME280;10858;42.714;23.180;2023-01-29T12:08:09;94663.34;;;3.46;71.01
21395;BME280;10858;42.714;23.180;2023-01-29T12:10:40;94663.88;;;3.21;71.78
21395;BME280;10858;42.714;23.180;2023-01-29T12:13:23;94662.69;;;3.11;72.09
21395;BME280;10858;42.714;23.180;2023-01-29T12:18:43;94659.09;;;4.18;69.81
21395;BME280;10858;42.714;23.180;2023-01-29T12:21:13;94661.56;;;3.92;69.47
21395;BME280;10858;42.714;23.180;2023-01-29T12:24:21;94660.78;;;4.19;69.50
21395;BME280;10858;42.714;23.180;2023-01-29T12:27:14;94659.25;;;3.72;71.11
21395;BME280;10858;42.714;23.180;2023-01-29T12:29:44;94658.31;;;3.73;69.58
21395;BME280;10858;42.714;23.180;2023-01-29T12:32:42;94659.25;;;3.72;70.00
21395;BME280;10858;42.714;23.180;2023-01-29T12:35:15;94657.66;;;4.13;70.36
21395;BME280;10858;42.714;23.180;2023-01-29T12:40:20;94665.28;;;3.27;71.64
21395;BME280;10858;42.714;23.180;2023-01-29T12:42:54;94666.13;;;3.59;71.62
21395;BME280;10858;42.714;23.180;2023-01-29T12:45:23;94667.25;;;3.55;70.99
21395;BME280;10858;42.714;23.180;2023-01-29T12:47:54;94665.13;;;3.45;71.13
21395;BME280;10858;42.714;23.180;2023-01-29T12:50:27;94667.66;;;3.31;71.81
21395;BME280;10858;42.714;23.180;2023-01-29T12:52:57;94661.16;;;3.38;71.45
21395;BME280;10858;42.714;23.180;2023-01-29T12:55:50;94660.81;;;3.44;71.15
21395;BME280;10858;42.714;23.180;2023-01-29T12:58:35;94667.69;;;3.00;73.06
21395;BME280;10858;42.714;23.180;2023-01-29T13:03:45;94669.97;;;3.22;72.04
21395;BME280;10858;42.714;23.180;2023-01-29T13:06:18;94658.19;;;3.44;71.14
21395;BME280;10858;42.714;23.180;2023-01-29T13:09:05;94658.66;;;3.67;71.04
21395;BME280;10858;42.714;23.180;2023-01-29T13:11:45;94663.50;;;3.59;70.35
21395;BME280;10858;42.714;23.180;2023-01-29T13:17:23;94657.91;;;3.94;69.86
21395;BME280;10858;42.714;23.180;2023-01-29T13:19:57;94666.88;;;3.61;70.32
21395;BME280;10858;42.714;23.180;2023-01-29T13:22:30;94669.56;;;3.59;71.03
21395;BME280;10858;42.714;23.180;2023-01-29T13:24:57;94664.69;;;3.69;71.01
21395;BME280;10858;42.714;23.180;2023-01-29T13:27:26;94665.72;;;3.51;71.34
21395;BME280;10858;42.714;23.180;2023-01-29T13:29:54;94674.34;;;3.21;72.18
21395;BME280;10858;42.714;23.180;2023-01-29T13:32:27;94670.97;;;3.35;72.20
21395;BME280;10858;42.714;23.180;2023-01-29T13:35:03;94681.59;;;3.79;70.05
21395;BME280;10858;42.714;23.180;2023-01-29T13:37:43;94682.88;;;3.56;69.92
21395;BME280;10858;42.714;23.180;2023-01-29T13:40:23;94684.81;;;3.37;70.41
21395;BME280;10858;42.714;23.180;2023-01-29T13:42:51;94683.59;;;3.74;70.29
21395;BME280;10858;42.714;23.180;2023-01-29T13:47:51;94677.53;;;3.58;70.13
21395;BME280;10858;42.714;23.180;2023-01-29T13:53:04;94691.78;;;3.38;71.66
21395;BME280;10858;42.714;23.180;2023-01-29T13:55:34;94689.81;;;3.57;71.36
21395;BME280;10858;42.714;23.180;2023-01-29T14:00:54;94694.81;;;3.30;71.73
21395;BME280;10858;42.714;23.180;2023-01-29T14:13:46;94708.06;;;2.96;72.92
21395;BME280;10858;42.714;23.180;2023-01-29T14:18:59;94703.09;;;2.59;74.31
21395;BME280;10858;42.714;23.180;2023-01-29T14:21:32;94711.28;;;3.17;74.10
21395;BME280;10858;42.714;23.180;2023-01-29T14:24:15;94710.94;;;3.07;73.52
21395;BME280;10858;42.714;23.180;2023-01-29T14:26:44;94710.38;;;3.18;74.07
21395;BME280;10858;42.714;23.180;2023-01-29T14:32:08;94714.13;;;2.48;75.18
21395;BME280;10858;42.714;23.180;2023-01-29T14:34:49;94718.31;;;2.68;74.98
21395;BME280;10858;42.714;23.180;2023-01-29T14:39:58;94721.31;;;2.60;74.52
21395;BME280;10858;42.714;23.180;2023-01-29T14:42:35;94724.50;;;2.83;74.25
21395;BME280;10858;42.714;23.180;2023-01-29T14:45:23;94723.03;;;2.94;73.42
21395;BME280;10858;42.714;23.180;2023-01-29T15:00:56;94726.59;;;3.09;73.22
21395;BME280;10858;42.714;23.180;2023-01-29T15:03:43;94715.00;;;3.13;73.02
21395;BME280;10858;42.714;23.180;2023-01-29T15:07:02;94716.94;;;3.09;72.80
21395;BME280;10858;42.714;23.180;2023-01-29T15:09:15;94716.47;;;3.18;72.18
21395;BME280;10858;42.714;23.180;2023-01-29T15:14:34;94723.28;;;3.05;71.83
21395;BME280;10858;42.714;23.180;2023-01-29T15:17:27;94719.06;;;3.03;73.00
21395;BME280;10858;42.714;23.180;2023-01-29T15:19:54;94718.88;;;2.90;72.40
21395;BME280;10858;42.714;23.180;2023-01-29T15:22:23;94718.47;;;2.98;72.22
21395;BME280;10858;42.714;23.180;2023-01-29T15:25:04;94725.06;;;3.05;71.99
21395;BME280;10858;42.714;23.180;2023-01-29T15:27:32;94725.69;;;2.77;72.50
21395;BME280;10858;42.714;23.180;2023-01-29T15:30:03;94734.06;;;2.51;73.87
21395;BME280;10858;42.714;23.180;2023-01-29T15:32:31;94729.84;;;2.48;73.13
21395;BME280;10858;42.714;23.180;2023-01-29T15:34:58;94721.09;;;2.98;71.98
21395;BME280;10858;42.714;23.180;2023-01-29T15:37:28;94735.50;;;2.89;72.28
21395;BME280;10858;42.714;23.180;2023-01-29T15:39:54;94727.19;;;2.98;71.47
21395;BME280;10858;42.714;23.180;2023-01-29T15:42:21;94725.75;;;3.08;71.30
21395;BME280;10858;42.714;23.180;2023-01-29T15:44:51;94729.47;;;3.04;70.97
21395;BME280;10858;42.714;23.180;2023-01-29T15:47:21;94733.19;;;3.00;71.09
21395;BME280;10858;42.714;23.180;2023-01-29T15:49:48;94736.06;;;3.11;70.78
21395;BME280;10858;42.714;23.180;2023-01-29T15:52:19;94737.59;;;3.15;70.90
21395;BME280;10858;42.714;23.180;2023-01-29T15:54:47;94743.34;;;3.22;70.47